createdAt,value
2017-10-17T00:03:46.005Z,1013.2
2017-10-17T00:13:45.957Z,1013.25
2017-10-17T00:23:45.926Z,1013.18
2017-10-17T00:33:45.977Z,1013.18
2017-10-17T00:43:45.928Z,1013.15
2017-10-17T00:53:46.008Z,1013.15
2017-10-17T01:03:45.968Z,1013.2
2017-10-17T01:13:45.955Z,1013.15
2017-10-17T01:23:45.985Z,1013.2
2017-10-17T01:33:45.947Z,1013.25
2017-10-17T01:43:46.018Z,1013.17
2017-10-17T01:53:45.977Z,1013.35
2017-10-17T02:03:45.929Z,1013.32
2017-10-17T02:13:46.012Z,1013.32
2017-10-17T02:23:45.978Z,1013.32
2017-10-17T02:33:45.925Z,1013.34
2017-10-17T02:43:45.984Z,1013.4
2017-10-17T02:53:45.934Z,1013.45
2017-10-17T03:03:46.011Z,1013.43
2017-10-17T03:13:45.970Z,1013.53
2017-10-17T03:23:45.914Z,1013.58
2017-10-17T03:33:45.986Z,1013.68
2017-10-17T03:43:45.952Z,1013.78
2017-10-17T03:53:45.961Z,1013.85
2017-10-17T04:03:45.990Z,1013.85
2017-10-17T04:13:46.312Z,1014
2017-10-17T04:23:45.996Z,1014.04
2017-10-17T04:33:45.950Z,1014.07
2017-10-17T04:43:46.040Z,1014.15
2017-10-17T04:53:45.989Z,1014.2
2017-10-17T05:03:45.957Z,1014.3
2017-10-17T05:13:45.910Z,1014.33
2017-10-17T05:23:45.977Z,1014.36
2017-10-17T05:33:45.930Z,1014.3
2017-10-17T05:43:45.982Z,1014.31
2017-10-17T05:53:45.951Z,1014.34
2017-10-17T06:03:45.907Z,1014.39
2017-10-17T06:13:45.992Z,1014.47
2017-10-17T06:23:45.936Z,1014.56
2017-10-17T06:33:45.905Z,1014.63
2017-10-17T06:43:45.893Z,1014.76
2017-10-17T06:53:45.931Z,1014.73
2017-10-17T07:03:45.970Z,1014.81
2017-10-17T07:13:45.967Z,1014.83
2017-10-17T07:23:46.025Z,1014.87
2017-10-17T07:33:45.983Z,1014.82
2017-10-17T07:43:45.946Z,1014.77
2017-10-17T07:53:46.033Z,1014.85
2017-10-17T08:03:45.935Z,1014.82
2017-10-17T08:13:45.939Z,1014.85
2017-10-17T08:23:45.975Z,1014.81
2017-10-17T08:33:45.965Z,1014.78
2017-10-17T08:43:45.966Z,1014.68
2017-10-17T08:53:46.009Z,1014.66
2017-10-17T09:03:45.991Z,1014.68
2017-10-17T09:13:45.995Z,1014.71
2017-10-17T09:23:46.024Z,1014.75
2017-10-17T09:33:46.177Z,1014.76
2017-10-17T09:43:46.047Z,1014.73
2017-10-17T09:53:46.063Z,1014.79
2017-10-17T10:03:46.057Z,1014.75
2017-10-17T10:13:46.158Z,1014.72
2017-10-17T10:23:46.344Z,1014.69
2017-10-17T10:33:46.099Z,1014.6
2017-10-17T10:43:46.090Z,1014.53
2017-10-17T10:53:46.106Z,1014.58
2017-10-17T11:03:46.113Z,1014.4
2017-10-17T11:13:46.131Z,1014.38
2017-10-17T11:23:46.126Z,1014.22
2017-10-17T11:33:46.126Z,1014.21
2017-10-17T11:43:46.227Z,1014.04
2017-10-17T11:53:46.179Z,1013.94
2017-10-17T12:03:46.283Z,1013.91
2017-10-17T12:13:47.085Z,1013.61
2017-10-17T12:23:46.170Z,1013.52
2017-10-17T12:33:46.217Z,1013.48
2017-10-17T12:43:46.483Z,1013.31
2017-10-17T12:53:46.246Z,1013.26
2017-10-17T13:03:46.211Z,1013.08
2017-10-17T13:13:46.176Z,1012.95
2017-10-17T13:23:46.274Z,1012.83
2017-10-17T13:33:46.202Z,1012.82
2017-10-17T13:43:46.256Z,1012.73
2017-10-17T13:53:46.210Z,1012.72
2017-10-17T14:03:46.281Z,1012.59
2017-10-17T14:13:46.255Z,1012.49
2017-10-17T14:23:46.195Z,1012.41
2017-10-17T14:33:46.183Z,1012.41
2017-10-17T14:43:46.229Z,1012.34
2017-10-17T14:53:46.187Z,1012.29
2017-10-17T15:03:46.238Z,1012.16
2017-10-17T15:13:46.165Z,1012.07
2017-10-17T15:23:46.354Z,1012.16
2017-10-17T15:33:46.234Z,1012.14
2017-10-17T15:43:46.195Z,1012.05
2017-10-17T15:53:46.132Z,1011.9
2017-10-17T16:03:46.159Z,1011.91
2017-10-17T16:13:46.374Z,1011.84
2017-10-17T16:23:46.166Z,1011.92
2017-10-17T16:33:46.165Z,1011.91
2017-10-17T16:43:46.143Z,1011.96
2017-10-17T16:53:46.140Z,1011.96
2017-10-17T17:03:46.148Z,1011.91
2017-10-17T17:13:46.160Z,1011.97
2017-10-17T17:23:46.147Z,1011.83
2017-10-17T17:33:46.159Z,1011.9
2017-10-17T17:43:46.157Z,1011.81
2017-10-17T17:53:46.189Z,1011.83
2017-10-17T18:03:46.218Z,1011.78
2017-10-17T18:13:46.234Z,1011.73
2017-10-17T18:23:46.153Z,1011.68
2017-10-17T18:33:46.212Z,1011.64
2017-10-17T18:43:46.189Z,1011.56
2017-10-17T18:53:46.182Z,1011.47
2017-10-17T19:03:46.173Z,1011.41
2017-10-17T19:13:46.180Z,1011.18
2017-10-17T19:23:46.182Z,1011.04
2017-10-17T19:33:46.173Z,1010.92
2017-10-17T19:43:46.142Z,1011.17
2017-10-17T19:53:46.163Z,1011.15
2017-10-17T20:03:46.143Z,1011.23
2017-10-17T20:13:46.179Z,1011.25
2017-10-17T20:23:46.138Z,1011.17
2017-10-17T20:33:46.185Z,1011.23
2017-10-17T20:43:46.191Z,1011.11
2017-10-17T20:53:46.487Z,1011.09
2017-10-17T21:03:46.249Z,1010.98
2017-10-17T21:13:46.301Z,1010.99
2017-10-17T21:23:46.245Z,1010.89
2017-10-17T21:33:46.195Z,1010.81
2017-10-17T21:43:46.233Z,1010.81
2017-10-17T21:53:46.220Z,1010.65
2017-10-17T22:03:46.175Z,1010.53
2017-10-17T22:13:46.248Z,1010.43
2017-10-17T22:33:46.188Z,1010.23
2017-10-17T22:43:46.240Z,1010.27
2017-10-17T22:53:47.214Z,1010.26
2017-10-17T23:03:46.154Z,1010.14
2017-10-17T23:13:46.212Z,1010.05
2017-10-17T23:23:46.179Z,1010.06
2017-10-17T23:33:46.259Z,1010.05
2017-10-17T23:43:46.221Z,1010.12
2017-10-17T23:53:46.175Z,1010.06
